Time;durP1;ratioP1;P1;durP2;ratioP2;P2;SDS_P1;SDS_P2;PMS_P1;PMS_P2;Temp;Humidity;BMP_temperature;BMP_pressure;BME280_temperature;BME280_humidity;BME280_pressure;Samples;Min_cycle;Max_cycle;Signal;HPM_P1;HPM_P2
2023/05/27 00:01:05;;;;;;;4.83;1.20;;;16.50;99.90;;;;;;5036200;28;20200;-69
2023/05/27 00:03:32;;;;;;;2.23;1.20;;;16.80;99.90;;;;;;5053069;28;20638;-68
2023/05/27 00:06:02;;;;;;;2.20;0.93;;;17.20;99.90;;;;;;5052907;28;20232;-68
2023/05/27 00:08:29;;;;;;;3.27;1.27;;;17.30;99.90;;;;;;5053408;28;20219;-68
2023/05/27 00:10:57;;;;;;;2.00;1.30;;;17.40;99.90;;;;;;5053305;28;20209;-68
2023/05/27 00:13:24;;;;;;;5.47;1.50;;;17.20;99.90;;;;;;5052313;28;20176;-68
2023/05/27 00:15:51;;;;;;;3.33;1.30;;;17.30;99.90;;;;;;5052866;28;20178;-68
2023/05/27 00:18:19;;;;;;;1.60;1.07;;;17.60;99.90;;;;;;5049768;28;20188;-67
2023/05/27 00:20:46;;;;;;;2.97;1.50;;;17.70;99.90;;;;;;5064802;28;20191;-69
2023/05/27 00:23:13;;;;;;;2.83;1.00;;;18.10;99.90;;;;;;5072802;28;20242;-68
2023/05/27 00:25:41;;;;;;;3.70;1.20;;;18.40;99.90;;;;;;5073004;28;20244;-69
2023/05/27 00:28:08;;;;;;;2.97;1.00;;;18.20;99.90;;;;;;5072771;28;20210;-69
2023/05/27 00:30:35;;;;;;;2.80;1.40;;;18.80;99.90;;;;;;5072679;28;20180;-69
2023/05/27 00:33:03;;;;;;;4.13;1.10;;;18.90;99.90;;;;;;5072800;28;20186;-69
2023/05/27 00:35:30;;;;;;;3.10;0.90;;;19.00;99.90;;;;;;5072677;28;20212;-69
2023/05/27 00:37:58;;;;;;;2.00;1.40;;;19.00;99.90;;;;;;5072970;28;20172;-68
2023/05/27 00:40:27;;;;;;;6.80;1.23;;;19.10;99.90;;;;;;5072703;28;20209;-69
2023/05/27 00:42:54;;;;;;;3.50;1.73;;;18.90;99.90;;;;;;5072501;28;20291;-69
2023/05/27 00:45:22;;;;;;;1.67;1.20;;;19.00;99.90;;;;;;5072741;28;20268;-69
2023/05/27 00:47:50;;;;;;;3.97;1.50;;;19.40;99.90;;;;;;5072742;28;20215;-68
2023/05/27 00:50:19;;;;;;;2.77;1.10;;;19.70;99.90;;;;;;5072682;28;20178;-69
2023/05/27 00:52:46;;;;;;;3.00;1.13;;;19.90;99.90;;;;;;5072380;28;20221;-68
2023/05/27 00:55:14;;;;;;;2.73;1.20;;;20.40;99.30;;;;;;5072332;28;20201;-68
2023/05/27 00:57:41;;;;;;;1.67;1.10;;;20.50;98.80;;;;;;5072389;28;20179;-67
2023/05/27 01:00:10;;;;;;;3.17;1.13;;;20.60;94.50;;;;;;5072358;28;20209;-68
2023/05/27 01:02:42;;;;;;;3.17;1.20;;;20.50;98.60;;;;;;5072540;28;20206;-69
2023/05/27 01:05:15;;;;;;;2.23;1.10;;;20.60;94.70;;;;;;5072516;28;20176;-69
2023/05/27 01:07:50;;;;;;;4.23;1.20;;;20.80;93.20;;;;;;5072682;28;20315;-68
2023/05/27 01:17:09;;;;;;;3.07;1.13;;;21.50;89.90;;;;;;5075852;28;20186;-68
2023/05/27 01:19:52;;;;;;;1.50;0.80;;;22.70;75.80;;;;;;5076680;28;20183;-68
2023/05/27 01:22:20;;;;;;;1.87;0.90;;;22.30;73.80;;;;;;5057594;28;20195;-67
2023/05/27 01:24:49;;;;;;;3.10;1.10;;;22.80;64.30;;;;;;5076548;28;20625;-67
2023/05/27 01:27:16;;;;;;;1.13;0.80;;;22.80;62.70;;;;;;5076426;28;20302;-67
2023/05/27 01:29:50;;;;;;;3.30;0.80;;;22.40;59.20;;;;;;5058088;28;20180;-67
2023/05/27 01:32:33;;;;;;;1.60;0.93;;;21.70;59.30;;;;;;5076264;28;20210;-68
2023/05/27 01:35:17;;;;;;;2.00;1.00;;;21.80;57.20;;;;;;5076486;28;20211;-67
2023/05/27 01:37:46;;;;;;;1.47;0.90;;;21.40;60.50;;;;;;5076072;28;20184;-69
2023/05/27 01:40:16;;;;;;;1.60;0.80;;;21.70;58.60;;;;;;5076652;28;20258;-68
2023/05/27 01:42:49;;;;;;;1.97;0.77;;;21.50;54.50;;;;;;5075639;28;20231;-68
2023/05/27 01:45:17;;;;;;;1.43;0.90;;;21.90;55.40;;;;;;5076034;28;20240;-68
2023/05/27 01:47:45;;;;;;;3.30;1.20;;;21.80;49.90;;;;;;5075741;28;20223;-68
2023/05/27 01:50:13;;;;;;;3.50;0.97;;;21.90;56.60;;;;;;5076063;28;20171;-66
2023/05/27 01:52:41;;;;;;;1.50;0.83;;;22.40;50.20;;;;;;5075520;28;20188;-67
2023/05/27 01:55:09;;;;;;;2.77;0.80;;;22.30;41.90;;;;;;5075817;28;20536;-68
2023/05/27 01:57:37;;;;;;;1.80;0.97;;;21.90;40.00;;;;;;5075550;28;20187;-69
2023/05/27 02:00:06;;;;;;;4.53;1.03;;;21.90;43.30;;;;;;5075643;28;20545;-69
2023/05/27 02:02:35;;;;;;;2.33;0.80;;;21.90;42.50;;;;;;5075518;28;20184;-69
2023/05/27 02:05:03;;;;;;;1.83;0.90;;;22.00;42.00;;;;;;5075536;28;20179;-69
2023/05/27 02:07:31;;;;;;;3.70;0.70;;;22.40;42.90;;;;;;5075714;28;20587;-69
2023/05/27 02:09:58;;;;;;;0.90;0.60;;;22.60;38.00;;;;;;5075611;28;20191;-69
2023/05/27 02:12:26;;;;;;;0.77;0.43;;;22.40;34.20;;;;;;5075337;28;20187;-68
2023/05/27 02:14:54;;;;;;;2.07;0.80;;;22.00;31.40;;;;;;5075269;28;20532;-67
2023/05/27 02:17:24;;;;;;;4.83;0.70;;;21.70;34.30;;;;;;5075537;28;20271;-68
2023/05/27 02:19:52;;;;;;;1.53;0.57;;;22.10;34.30;;;;;;5074862;28;20254;-68
2023/05/27 02:22:20;;;;;;;1.33;0.67;;;22.50;33.00;;;;;;5079111;28;20180;-69
2023/05/27 02:24:48;;;;;;;2.70;0.97;;;22.50;29.40;;;;;;5075175;28;20230;-68
2023/05/27 02:27:15;;;;;;;1.50;0.70;;;21.90;30.60;;;;;;5076367;28;20216;-68
2023/05/27 02:29:43;;;;;;;2.27;0.60;;;21.90;31.20;;;;;;5075557;28;20184;-68
2023/05/27 02:32:11;;;;;;;3.13;0.60;;;22.00;30.00;;;;;;5075213;28;20164;-68
2023/05/27 02:34:40;;;;;;;0.93;0.57;;;21.90;32.40;;;;;;5075035;28;20214;-68
2023/05/27 02:37:08;;;;;;;2.30;0.70;;;22.10;27.20;;;;;;5074982;28;20172;-67
2023/05/27 02:39:36;;;;;;;1.03;0.60;;;22.40;29.50;;;;;;5074751;28;20206;-68
2023/05/27 02:42:04;;;;;;;2.10;0.93;;;22.80;28.60;;;;;;5074370;28;20223;-68
2023/05/27 02:44:32;;;;;;;0.93;0.57;;;22.70;30.10;;;;;;5074762;28;20202;-68
2023/05/27 02:47:00;;;;;;;1.27;0.63;;;23.00;29.00;;;;;;5074899;28;20679;-70
2023/05/27 02:49:27;;;;;;;4.17;0.80;;;22.90;29.90;;;;;;5074853;28;20183;-69
2023/05/27 02:51:56;;;;;;;4.90;0.70;;;22.70;29.00;;;;;;5056653;28;20188;-69
2023/05/27 02:54:23;;;;;;;3.53;0.97;;;23.00;29.80;;;;;;5056529;28;20180;-69
2023/05/27 02:56:51;;;;;;;1.20;0.57;;;22.90;29.40;;;;;;5074504;28;20579;-68
2023/05/27 02:59:19;;;;;;;5.27;0.80;;;22.30;29.70;;;;;;5074658;28;20260;-69
2023/05/27 03:01:47;;;;;;;4.43;0.77;;;22.50;30.30;;;;;;5074456;28;20172;-68
2023/05/27 03:04:16;;;;;;;3.67;0.80;;;22.60;31.20;;;;;;5074580;28;20172;-69
2023/05/27 03:06:44;;;;;;;3.07;0.97;;;22.40;30.30;;;;;;5074420;28;20668;-70
2023/05/27 03:09:13;;;;;;;1.80;0.50;;;22.40;30.50;;;;;;5074778;28;20281;-68
2023/05/27 03:11:41;;;;;;;2.33;0.50;;;22.60;31.50;;;;;;5056399;28;20634;-69
2023/05/27 03:14:09;;;;;;;3.57;0.60;;;22.70;30.00;;;;;;5074564;28;20226;-68
2023/05/27 03:16:37;;;;;;;2.63;0.87;;;22.60;28.30;;;;;;5073987;28;20262;-68
2023/05/27 03:19:05;;;;;;;1.20;0.40;;;22.50;28.00;;;;;;5074161;28;20235;-69
2023/05/27 03:21:33;;;;;;;0.80;0.60;;;22.30;28.50;;;;;;5055751;28;20540;-68
2023/05/27 03:24:00;;;;;;;2.03;0.57;;;22.40;28.40;;;;;;5074143;28;20168;-68
2023/05/27 03:26:28;;;;;;;2.53;0.87;;;22.20;28.60;;;;;;5073813;28;20180;-68
2023/05/27 03:28:56;;;;;;;0.90;0.50;;;22.40;28.70;;;;;;5073962;28;20234;-69
2023/05/27 03:31:24;;;;;;;0.63;0.40;;;22.80;28.90;;;;;;5072876;28;20605;-69
2023/05/27 03:33:51;;;;;;;1.60;0.60;;;22.50;29.50;;;;;;5074376;28;20214;-69
2023/05/27 03:36:20;;;;;;;0.63;0.40;;;22.30;29.60;;;;;;5073882;28;20172;-70
2023/05/27 03:38:48;;;;;;;2.60;0.80;;;22.60;30.50;;;;;;5055507;28;20183;-68
2023/05/27 03:41:16;;;;;;;1.30;0.50;;;22.50;28.80;;;;;;5073250;28;20172;-68
2023/05/27 03:43:43;;;;;;;2.40;0.60;;;22.30;29.40;;;;;;5073715;28;20727;-69
2023/05/27 03:46:11;;;;;;;0.93;0.40;;;22.30;30.40;;;;;;5073363;28;20183;-67
2023/05/27 03:48:39;;;;;;;1.47;0.53;;;22.50;30.90;;;;;;5073458;28;20553;-70
2023/05/27 03:51:07;;;;;;;2.80;0.70;;;22.30;30.80;;;;;;5073495;28;20519;-68
2023/05/27 03:53:35;;;;;;;1.27;0.60;;;22.20;34.20;;;;;;5073472;28;20723;-68
2023/05/27 03:56:03;;;;;;;0.90;0.40;;;22.40;33.00;;;;;;5073492;28;20259;-69
2023/05/27 03:58:31;;;;;;;1.50;0.60;;;22.50;31.60;;;;;;5055662;28;20194;-68
2023/05/27 04:00:58;;;;;;;2.93;0.70;;;22.20;34.40;;;;;;5073224;28;20660;-69
2023/05/27 04:03:26;;;;;;;1.43;0.40;;;22.30;34.00;;;;;;5073436;28;20195;-69
2023/05/27 04:05:56;;;;;;;3.57;0.53;;;22.30;33.40;;;;;;5073406;28;20171;-69
2023/05/27 04:08:26;;;;;;;2.07;0.50;;;21.90;32.10;;;;;;5073161;28;20610;-69
2023/05/27 04:10:54;;;;;;;3.27;0.90;;;21.90;33.50;;;;;;5072968;28;20266;-69
2023/05/27 04:13:22;;;;;;;1.90;1.00;;;21.60;34.30;;;;;;5072971;28;20237;-68
2023/05/27 04:15:50;;;;;;;1.87;0.70;;;21.70;35.50;;;;;;5073045;28;20179;-69
2023/05/27 04:18:18;;;;;;;2.40;0.57;;;21.80;35.70;;;;;;5073250;28;20218;-69
2023/05/27 04:20:50;;;;;;;0.73;0.50;;;21.70;38.00;;;;;;5072946;28;20262;-69
2023/05/27 04:23:18;;;;;;;1.63;0.60;;;21.40;37.90;;;;;;5072919;28;20190;-68
2023/05/27 04:25:48;;;;;;;1.03;0.67;;;21.20;42.20;;;;;;5073036;28;20206;-69
2023/05/27 04:28:15;;;;;;;0.90;0.70;;;21.30;45.40;;;;;;5072918;28;20223;-69
2023/05/27 04:30:45;;;;;;;2.00;0.83;;;21.10;47.20;;;;;;5073000;28;20179;-68
2023/05/27 04:33:18;;;;;;;2.40;0.80;;;21.00;48.10;;;;;;5072670;28;20188;-69
2023/05/27 04:35:47;;;;;;;2.00;0.70;;;20.60;52.40;;;;;;5072943;28;20367;-69
2023/05/27 04:38:20;;;;;;;1.30;0.50;;;20.60;53.40;;;;;;5072906;28;20202;-70
2023/05/27 04:40:53;;;;;;;2.00;0.80;;;20.40;56.00;;;;;;5055043;28;20273;-69
2023/05/27 04:43:21;;;;;;;1.93;0.80;;;20.00;58.90;;;;;;5072125;28;20243;-69
2023/05/27 04:45:49;;;;;;;3.23;0.60;;;20.00;62.60;;;;;;5073088;28;20263;-68
2023/05/27 04:48:16;;;;;;;1.57;0.70;;;19.90;63.20;;;;;;5072823;28;20613;-69
2023/05/27 04:50:44;;;;;;;6.20;1.23;;;19.90;64.80;;;;;;5072773;28;20183;-68
2023/05/27 04:53:12;;;;;;;1.97;1.00;;;19.70;65.30;;;;;;5072494;28;20182;-69
2023/05/27 04:55:41;;;;;;;3.00;0.90;;;19.60;66.10;;;;;;5072509;28;20190;-68
2023/05/27 04:58:09;;;;;;;3.57;0.60;;;19.50;66.70;;;;;;5072582;28;20182;-68
2023/05/27 05:00:49;;;;;;;1.63;0.70;;;19.40;67.40;;;;;;5072554;28;20183;-69
2023/05/27 05:03:36;;;;;;;1.07;0.60;;;19.10;69.80;;;;;;5072447;28;20197;-68
2023/05/27 05:06:04;;;;;;;0.87;0.50;;;19.10;73.30;;;;;;5072500;28;20179;-68
2023/05/27 05:08:32;;;;;;;1.80;0.70;;;18.90;72.70;;;;;;5072909;28;20221;-69
2023/05/27 05:11:00;;;;;;;3.03;0.80;;;18.30;76.50;;;;;;5072874;28;20613;-69
2023/05/27 05:13:29;;;;;;;3.10;0.80;;;18.30;78.70;;;;;;5072511;28;20254;-69
2023/05/27 05:15:57;;;;;;;1.43;0.70;;;18.30;82.80;;;;;;5072487;28;20187;-70
2023/05/27 05:18:25;;;;;;;0.93;0.60;;;18.30;82.40;;;;;;5072415;28;20184;-69
2023/05/27 05:20:53;;;;;;;1.93;0.87;;;18.20;83.90;;;;;;5072435;28;20266;-67
2023/05/27 05:23:20;;;;;;;2.80;1.00;;;18.20;86.20;;;;;;5072418;28;20180;-69
2023/05/27 05:25:54;;;;;;;2.13;0.87;;;17.90;88.50;;;;;;5072487;28;20619;-69
2023/05/27 05:28:23;;;;;;;1.57;0.70;;;17.50;91.20;;;;;;5072059;28;20230;-69
2023/05/27 05:30:51;;;;;;;0.93;0.70;;;17.10;95.00;;;;;;5072371;28;20203;-69
2023/05/27 05:33:18;;;;;;;0.93;0.57;;;16.70;97.40;;;;;;5072188;28;20176;-69
2023/05/27 05:35:46;;;;;;;1.77;0.80;;;16.60;99.70;;;;;;5072253;28;20668;-69
2023/05/27 05:38:14;;;;;;;2.43;1.10;;;16.50;99.90;;;;;;5054273;28;20652;-68
2023/05/27 05:40:48;;;;;;;4.13;1.30;;;16.40;99.90;;;;;;5072270;28;20164;-69
2023/05/27 05:43:15;;;;;;;2.10;1.37;;;16.20;99.90;;;;;;5071880;28;20327;-69
2023/05/27 05:45:43;;;;;;;2.73;1.20;;;16.20;99.90;;;;;;5072391;28;20246;-71
2023/05/27 05:48:11;;;;;;;2.03;1.33;;;16.10;99.90;;;;;;5072339;28;20216;-69
2023/05/27 05:50:39;;;;;;;2.40;1.03;;;16.00;99.90;;;;;;5072106;28;20200;-69
2023/05/27 05:53:07;;;;;;;3.97;1.00;;;15.90;99.90;;;;;;5072068;28;20268;-68
2023/05/27 05:55:36;;;;;;;0.70;0.70;;;15.80;99.90;;;;;;5075238;28;20181;-68
2023/05/27 05:58:03;;;;;;;1.47;0.73;;;15.60;99.90;;;;;;5075851;28;20499;-68
2023/05/27 06:00:31;;;;;;;1.37;0.90;;;15.60;99.90;;;;;;5057628;28;20176;-68
2023/05/27 06:03:00;;;;;;;3.50;0.90;;;15.50;99.90;;;;;;5075557;28;20180;-69
2023/05/27 06:05:28;;;;;;;2.47;1.03;;;15.40;99.90;;;;;;5075456;28;20174;-68
2023/05/27 06:07:56;;;;;;;1.23;1.13;;;15.40;99.90;;;;;;5075382;28;20590;-68
2023/05/27 06:10:24;;;;;;;1.90;1.10;;;15.30;99.90;;;;;;5075243;28;20293;-68
2023/05/27 06:12:51;;;;;;;2.90;1.03;;;15.30;99.90;;;;;;5075233;28;20187;-68
2023/05/27 06:15:19;;;;;;;1.40;0.80;;;15.20;99.90;;;;;;5075392;28;20291;-68
2023/05/27 06:17:47;;;;;;;0.70;0.70;;;15.10;99.90;;;;;;5075790;28;20184;-69
2023/05/27 06:20:15;;;;;;;2.30;1.10;;;15.10;99.90;;;;;;5075422;28;20715;-70
2023/05/27 06:22:43;;;;;;;2.87;1.03;;;15.00;99.90;;;;;;5075287;28;20642;-69
2023/05/27 06:25:10;;;;;;;1.83;1.20;;;14.90;99.90;;;;;;5075146;28;20178;-69
2023/05/27 06:27:38;;;;;;;1.40;0.80;;;14.80;99.90;;;;;;5075186;28;20221;-69
2023/05/27 06:30:07;;;;;;;2.47;1.10;;;14.70;99.90;;;;;;5051273;28;20907;-75
2023/05/27 06:32:34;;;;;;;2.27;1.30;;;14.70;99.90;;;;;;5053635;28;20267;-73
2023/05/27 06:35:02;;;;;;;2.47;1.13;;;14.60;99.90;;;;;;5042911;28;20196;-72
2023/05/27 06:37:30;;;;;;;1.97;1.27;;;14.60;99.90;;;;;;5054469;28;20181;-74
2023/05/27 06:39:58;;;;;;;2.20;1.20;;;14.50;99.90;;;;;;5026136;28;20251;-71
2023/05/27 06:42:26;;;;;;;4.13;1.20;;;14.40;99.90;;;;;;5066389;28;20222;-74
2023/05/27 06:44:53;;;;;;;3.20;1.37;;;14.40;99.90;;;;;;5059674;28;20337;-72
2023/05/27 06:47:22;;;;;;;4.33;1.23;;;14.40;99.90;;;;;;5052509;28;20219;-73
2023/05/27 06:49:53;;;;;;;1.40;1.00;;;14.30;99.90;;;;;;5053228;28;20175;-74
2023/05/27 06:52:20;;;;;;;2.30;1.33;;;14.20;99.90;;;;;;5052710;28;20192;-73
2023/05/27 06:54:49;;;;;;;1.23;1.13;;;14.10;99.90;;;;;;5031568;28;20693;-75
2023/05/27 06:57:16;;;;;;;5.03;1.13;;;14.10;99.90;;;;;;5052516;28;20191;-73
2023/05/27 06:59:44;;;;;;;1.30;1.07;;;14.00;99.90;;;;;;5052774;28;20182;-75
2023/05/27 07:02:12;;;;;;;1.30;1.00;;;14.00;99.90;;;;;;5053240;28;20175;-73
2023/05/27 07:04:40;;;;;;;1.33;0.97;;;13.90;99.90;;;;;;5052695;28;20175;-74
2023/05/27 07:07:08;;;;;;;4.50;1.30;;;13.80;99.90;;;;;;5051603;28;20223;-74
2023/05/27 07:09:35;;;;;;;2.73;1.60;;;13.70;99.90;;;;;;5052996;28;20236;-73
2023/05/27 07:12:04;;;;;;;7.03;2.30;;;13.60;99.90;;;;;;5052992;28;20174;-74
2023/05/27 07:14:31;;;;;;;3.27;1.80;;;13.50;99.90;;;;;;5035209;28;20179;-74
2023/05/27 07:16:59;;;;;;;2.17;1.87;;;13.50;99.90;;;;;;5052407;28;20189;-75
2023/05/27 07:19:27;;;;;;;1.90;1.00;;;13.40;99.90;;;;;;5052373;28;20640;-72
2023/05/27 07:21:55;;;;;;;2.20;1.07;;;13.30;99.90;;;;;;5052838;28;20207;-74
2023/05/27 07:24:22;;;;;;;1.87;1.00;;;13.30;99.90;;;;;;5052810;28;20195;-74
2023/05/27 07:26:50;;;;;;;0.97;0.87;;;13.20;99.90;;;;;;5052634;28;20186;-74
2023/05/27 07:29:18;;;;;;;2.00;1.27;;;13.20;99.90;;;;;;5052608;28;20211;-74
2023/05/27 07:31:47;;;;;;;3.10;1.23;;;13.10;99.90;;;;;;5052604;28;20240;-74
2023/05/27 07:34:15;;;;;;;2.40;1.20;;;13.00;99.90;;;;;;5052776;28;20182;-74
2023/05/27 07:36:43;;;;;;;3.50;1.50;;;13.00;99.90;;;;;;5052690;28;20203;-72
2023/05/27 07:39:11;;;;;;;4.03;1.10;;;12.90;99.90;;;;;;5052673;28;20229;-72
2023/05/27 07:41:39;;;;;;;1.77;1.10;;;12.80;99.90;;;;;;5051383;28;20203;-70
2023/05/27 07:44:06;;;;;;;2.03;1.40;;;12.70;99.90;;;;;;5051307;28;20254;-73
2023/05/27 07:46:34;;;;;;;1.53;1.17;;;12.70;99.90;;;;;;5052483;28;20186;-74
2023/05/27 07:49:02;;;;;;;1.27;1.03;;;12.60;99.90;;;;;;5052338;28;20266;-72
2023/05/27 07:51:30;;;;;;;3.67;1.30;;;12.50;99.90;;;;;;5052342;28;20178;-74
2023/05/27 07:53:58;;;;;;;3.37;1.40;;;12.50;99.90;;;;;;5052370;28;20181;-74
2023/05/27 07:56:26;;;;;;;2.53;1.20;;;12.50;99.90;;;;;;5051914;28;20253;-74
2023/05/27 07:58:54;;;;;;;1.77;1.30;;;12.40;99.90;;;;;;5065827;28;20627;-74
2023/05/27 08:01:22;;;;;;;2.50;1.33;;;12.40;99.90;;;;;;5057432;28;20185;-72
2023/05/27 08:03:50;;;;;;;3.07;1.30;;;12.30;99.90;;;;;;5051615;28;20261;-73
2023/05/27 08:06:18;;;;;;;1.63;1.43;;;12.30;99.90;;;;;;5047974;28;20281;-75
2023/05/27 08:08:47;;;;;;;4.77;1.87;;;12.30;99.90;;;;;;5052196;28;20209;-73
2023/05/27 08:11:15;;;;;;;2.13;1.40;;;12.20;99.90;;;;;;5052002;28;20277;-77
2023/05/27 08:13:43;;;;;;;3.13;1.73;;;12.20;99.90;;;;;;5051844;28;20264;-77
2023/05/27 08:16:11;;;;;;;1.90;1.30;;;12.10;99.90;;;;;;5052062;28;20169;-74
2023/05/27 08:18:38;;;;;;;4.40;1.83;;;12.00;99.90;;;;;;5051920;28;20173;-73
2023/05/27 08:21:06;;;;;;;4.27;1.60;;;11.90;99.90;;;;;;5052056;28;20648;-74
2023/05/27 08:23:34;;;;;;;3.57;1.70;;;11.90;99.90;;;;;;5052076;28;20181;-74
2023/05/27 08:26:02;;;;;;;3.43;1.60;;;11.90;99.90;;;;;;5051829;28;20184;-75
2023/05/27 08:28:30;;;;;;;3.07;1.50;;;11.90;99.90;;;;;;5051641;28;20232;-72
2023/05/27 08:30:57;;;;;;;2.53;1.70;;;11.70;99.90;;;;;;5052079;28;20700;-75
2023/05/27 08:33:26;;;;;;;2.93;1.87;;;11.70;99.90;;;;;;5051865;28;20210;-75
2023/05/27 08:35:55;;;;;;;4.60;2.23;;;11.60;99.90;;;;;;5051118;28;20740;-75
2023/05/27 08:38:23;;;;;;;4.13;1.70;;;11.40;99.90;;;;;;5051524;28;20187;-74
2023/05/27 08:40:51;;;;;;;5.43;2.00;;;11.40;99.90;;;;;;5051907;28;20605;-75
2023/05/27 08:43:20;;;;;;;5.47;1.80;;;11.20;99.90;;;;;;5051558;28;20232;-71
2023/05/27 08:45:49;;;;;;;2.90;1.50;;;11.20;99.90;;;;;;5033674;28;20181;-72
2023/05/27 08:48:17;;;;;;;5.47;2.27;;;11.10;99.90;;;;;;5051722;28;20305;-75
2023/05/27 08:50:48;;;;;;;4.67;1.90;;;11.00;99.90;;;;;;5051701;28;20564;-75
2023/05/27 08:53:18;;;;;;;2.00;1.67;;;10.90;99.90;;;;;;5051672;28;20180;-73
2023/05/27 08:55:47;;;;;;;7.13;1.70;;;10.80;99.90;;;;;;5051491;28;20223;-75
2023/05/27 08:58:16;;;;;;;2.40;1.73;;;10.60;99.90;;;;;;5051426;28;20182;-74
2023/05/27 09:00:44;;;;;;;7.70;2.20;;;10.60;99.90;;;;;;5051489;28;20293;-73
2023/05/27 09:03:12;;;;;;;4.27;2.07;;;10.50;99.90;;;;;;5033719;28;20190;-75
2023/05/27 09:05:43;;;;;;;5.67;2.60;;;10.40;99.90;;;;;;5051616;28;20179;-74
2023/05/27 09:08:11;;;;;;;3.90;2.30;;;10.30;99.90;;;;;;5051476;28;20679;-77
2023/05/27 09:10:40;;;;;;;4.20;2.93;;;10.10;99.90;;;;;;5051486;28;20592;-75
2023/05/27 09:13:07;;;;;;;4.73;2.87;;;10.20;99.90;;;;;;5051265;28;20248;-75
2023/05/27 09:15:36;;;;;;;2.60;2.20;;;10.10;99.90;;;;;;5051215;28;20533;-74
2023/05/27 09:18:05;;;;;;;3.67;2.60;;;9.90;99.90;;;;;;5051490;28;20228;-76
2023/05/27 09:20:32;;;;;;;6.23;2.20;;;9.90;99.90;;;;;;5051476;28;20175;-75
2023/05/27 09:23:01;;;;;;;6.30;2.40;;;9.80;99.90;;;;;;5051441;28;20182;-75
2023/05/27 09:25:29;;;;;;;3.50;2.70;;;9.60;99.90;;;;;;5051296;28;20495;-75
2023/05/27 09:27:57;;;;;;;5.50;2.10;;;9.50;99.90;;;;;;5051288;28;20213;-69
2023/05/27 09:30:29;;;;;;;8.13;2.43;;;9.30;99.90;;;;;;5054445;28;20184;-74
2023/05/27 09:33:04;;;;;;;3.10;2.30;;;9.30;99.90;;;;;;5055339;28;20195;-75
2023/05/27 09:35:37;;;;;;;3.57;2.30;;;9.30;99.90;;;;;;5055061;28;20188;-75
2023/05/27 09:38:09;;;;;;;2.87;2.27;;;9.20;99.90;;;;;;5055160;28;20222;-73
2023/05/27 09:40:43;;;;;;;3.63;2.00;;;9.10;99.90;;;;;;5054989;28;20184;-72
2023/05/27 09:43:17;;;;;;;2.80;1.87;;;9.10;99.90;;;;;;5054911;28;20233;-74
2023/05/27 09:45:46;;;;;;;5.53;2.20;;;9.00;99.90;;;;;;5036480;28;20554;-68
2023/05/27 09:48:18;;;;;;;6.80;2.47;;;9.00;99.90;;;;;;5035214;28;20297;-72
2023/05/27 09:50:47;;;;;;;3.97;2.20;;;8.90;99.90;;;;;;5036041;28;20753;-71
2023/05/27 09:53:14;;;;;;;4.53;2.30;;;8.90;99.90;;;;;;5036019;28;20288;-73
2023/05/27 09:55:43;;;;;;;5.03;2.00;;;8.80;99.90;;;;;;5035897;28;20178;-68
2023/05/27 09:58:11;;;;;;;3.60;2.37;;;8.80;99.90;;;;;;5036507;28;20336;-66
2023/05/27 10:00:41;;;;;;;5.23;2.70;;;8.80;99.90;;;;;;5018240;28;20184;-71
2023/05/27 10:03:10;;;;;;;6.10;2.47;;;8.70;99.90;;;;;;5036047;28;20187;-69
2023/05/27 10:05:38;;;;;;;4.13;2.60;;;8.80;99.90;;;;;;5035728;28;20190;-71
2023/05/27 10:08:06;;;;;;;5.20;2.80;;;8.70;99.90;;;;;;5035673;28;20245;-71
2023/05/27 10:10:35;;;;;;;3.17;2.40;;;8.80;99.90;;;;;;5034632;28;20186;-68
2023/05/27 10:13:03;;;;;;;5.57;2.87;;;8.90;99.90;;;;;;5035934;28;20214;-73
2023/05/27 10:15:33;;;;;;;5.07;2.80;;;8.90;99.90;;;;;;5035404;28;20268;-73
2023/05/27 10:18:03;;;;;;;4.07;2.77;;;9.00;99.90;;;;;;5034196;28;20218;-73
2023/05/27 10:20:33;;;;;;;5.97;3.10;;;9.00;99.90;;;;;;5034815;28;20174;-68
2023/05/27 10:23:15;;;;;;;8.90;3.80;;;9.00;99.90;;;;;;5033816;28;20335;-72
2023/05/27 10:25:55;;;;;;;5.37;3.03;;;9.00;99.90;;;;;;5034690;28;20181;-73
2023/05/27 10:28:35;;;;;;;7.20;3.40;;;9.00;99.90;;;;;;5034932;28;20220;-74
2023/05/27 10:31:11;;;;;;;6.13;3.20;;;9.00;99.90;;;;;;5035028;28;20669;-74
2023/05/27 10:33:43;;;;;;;5.83;3.23;;;9.00;99.90;;;;;;5033692;28;20557;-74
2023/05/27 10:36:16;;;;;;;5.97;3.63;;;8.90;99.90;;;;;;5034760;28;20271;-74
2023/05/27 10:38:55;;;;;;;6.67;3.87;;;8.90;99.90;;;;;;5034731;28;20632;-70
2023/05/27 10:41:23;;;;;;;8.33;3.93;;;8.80;99.90;;;;;;5034423;28;20561;-73
2023/05/27 10:44:00;;;;;;;7.40;3.33;;;8.70;99.90;;;;;;5034445;28;20233;-73
2023/05/27 10:46:38;;;;;;;5.97;3.80;;;8.70;99.90;;;;;;5034729;28;20178;-70
2023/05/27 10:49:27;;;;;;;5.80;3.90;;;8.60;99.90;;;;;;5059032;28;20189;-69
2023/05/27 10:51:57;;;;;;;5.90;4.07;;;8.50;99.90;;;;;;5071528;28;20191;-73
2023/05/27 10:54:26;;;;;;;8.60;3.87;;;8.50;99.90;;;;;;5070425;28;20272;-69
2023/05/27 10:56:54;;;;;;;4.97;3.60;;;8.50;99.90;;;;;;5073791;28;20176;-72
2023/05/27 10:59:23;;;;;;;7.07;3.87;;;8.40;99.90;;;;;;5066839;28;20245;-73
2023/05/27 11:01:54;;;;;;;6.53;3.70;;;8.30;99.90;;;;;;5056308;28;20191;-73
2023/05/27 11:04:22;;;;;;;7.33;3.80;;;8.30;99.90;;;;;;5059032;28;20238;-74
2023/05/27 11:07:00;;;;;;;10.93;4.73;;;8.20;99.90;;;;;;5075462;28;20183;-74
2023/05/27 11:09:28;;;;;;;7.30;5.03;;;8.20;99.90;;;;;;5073551;28;20191;-74
2023/05/27 11:12:02;;;;;;;5.40;4.30;;;8.20;99.90;;;;;;5073683;28;20520;-74
2023/05/27 11:14:31;;;;;;;9.27;4.80;;;8.10;99.90;;;;;;5073980;28;20632;-73
2023/05/27 11:16:58;;;;;;;7.63;5.00;;;8.00;99.90;;;;;;5073973;28;20217;-72
2023/05/27 11:19:26;;;;;;;9.17;5.30;;;8.00;99.90;;;;;;5074135;28;20183;-71
2023/05/27 11:21:54;;;;;;;9.77;6.07;;;7.90;99.90;;;;;;5073908;28;20227;-73
2023/05/27 11:24:22;;;;;;;7.97;5.93;;;7.80;99.90;;;;;;5073903;28;20193;-73
2023/05/27 11:26:50;;;;;;;11.83;4.93;;;7.70;99.90;;;;;;5073730;28;20192;-73
2023/05/27 11:29:18;;;;;;;6.93;4.00;;;7.70;99.90;;;;;;5056072;28;20190;-74
2023/05/27 11:31:49;;;;;;;10.20;5.83;;;7.60;99.90;;;;;;5073336;28;20634;-73
2023/05/27 11:34:20;;;;;;;9.03;4.60;;;7.50;99.90;;;;;;5073653;28;20198;-74
2023/05/27 11:36:50;;;;;;;7.70;5.00;;;7.40;99.90;;;;;;5073309;28;20256;-74
2023/05/27 11:39:18;;;;;;;8.97;5.53;;;7.40;99.90;;;;;;5073796;28;20176;-73
2023/05/27 11:41:53;;;;;;;6.87;4.60;;;7.40;99.90;;;;;;5051800;28;20272;-73
2023/05/27 11:44:23;;;;;;;9.83;5.13;;;7.30;99.90;;;;;;5064328;28;20186;-73
2023/05/27 11:46:52;;;;;;;10.73;5.60;;;7.30;99.90;;;;;;5058120;28;20183;-74
2023/05/27 11:49:22;;;;;;;9.33;5.17;;;7.30;99.90;;;;;;5053351;28;20597;-73
2023/05/27 11:51:55;;;;;;;7.93;4.63;;;7.20;99.90;;;;;;5034929;28;20184;-72
2023/05/27 11:54:33;;;;;;;8.27;4.73;;;7.20;99.90;;;;;;5053526;28;20168;-72
2023/05/27 11:57:02;;;;;;;8.77;5.77;;;7.10;99.90;;;;;;5052711;28;20216;-73
2023/05/27 11:59:30;;;;;;;9.37;6.30;;;7.00;99.90;;;;;;5052868;28;20180;-71
2023/05/27 12:02:01;;;;;;;16.07;7.13;;;7.00;99.90;;;;;;5052855;28;20176;-73
2023/05/27 12:04:29;;;;;;;13.33;7.50;;;7.00;99.90;;;;;;5036215;28;20177;-72
2023/05/27 12:07:00;;;;;;;12.20;7.13;;;6.90;99.90;;;;;;5052813;28;20189;-71
2023/05/27 12:09:28;;;;;;;13.57;6.43;;;6.90;99.90;;;;;;5053138;28;20181;-73
2023/05/27 12:11:56;;;;;;;10.70;6.73;;;6.80;99.90;;;;;;5052733;28;20267;-72
2023/05/27 12:14:24;;;;;;;10.87;6.33;;;6.80;99.90;;;;;;5052893;28;20632;-72
2023/05/27 12:16:52;;;;;;;11.87;6.07;;;6.80;99.90;;;;;;5052470;28;20180;-73
2023/05/27 12:19:19;;;;;;;10.20;6.17;;;6.80;99.90;;;;;;5052500;28;20176;-73
2023/05/27 12:21:51;;;;;;;11.87;6.40;;;6.80;99.90;;;;;;5052527;28;20705;-72
2023/05/27 12:24:19;;;;;;;10.37;6.17;;;6.70;99.90;;;;;;5052425;28;20594;-74
2023/05/27 12:26:47;;;;;;;8.53;5.33;;;6.70;99.90;;;;;;5052445;28;20634;-73
2023/05/27 12:29:15;;;;;;;7.07;4.13;;;6.70;99.90;;;;;;5052594;28;20283;-72
2023/05/27 12:31:45;;;;;;;8.37;4.80;;;6.70;99.90;;;;;;5052568;28;20212;-73
2023/05/27 12:34:13;;;;;;;8.30;4.40;;;6.70;99.90;;;;;;5052447;28;20185;-71
2023/05/27 12:36:41;;;;;;;5.50;3.93;;;6.70;99.90;;;;;;5052257;28;20185;-72
2023/05/27 12:39:09;;;;;;;7.23;3.80;;;6.80;99.90;;;;;;5052602;28;20180;-73
2023/05/27 12:41:41;;;;;;;5.87;3.77;;;6.80;99.90;;;;;;5052008;28;20184;-70
2023/05/27 12:44:09;;;;;;;6.40;3.90;;;6.80;99.90;;;;;;5052553;28;20181;-73
2023/05/27 12:46:38;;;;;;;5.93;3.77;;;6.80;99.90;;;;;;5051626;28;20187;-72
2023/05/27 12:49:07;;;;;;;6.77;3.87;;;6.70;99.90;;;;;;5033758;28;20228;-73
2023/05/27 12:51:35;;;;;;;5.73;3.33;;;6.70;99.90;;;;;;5033736;28;20203;-72
2023/05/27 12:54:03;;;;;;;11.37;4.27;;;6.70;99.90;;;;;;5051077;28;20199;-73
2023/05/27 12:56:30;;;;;;;8.07;3.77;;;6.60;99.90;;;;;;5051728;28;20649;-73
2023/05/27 12:58:58;;;;;;;5.87;3.80;;;6.60;99.90;;;;;;5050784;28;20186;-72
2023/05/27 13:01:26;;;;;;;5.83;3.83;;;6.50;99.90;;;;;;5067129;28;20176;-71
2023/05/27 13:03:54;;;;;;;6.83;3.67;;;6.50;99.90;;;;;;5039779;28;20180;-73
2023/05/27 13:06:25;;;;;;;9.00;4.27;;;6.50;99.90;;;;;;5051725;28;20232;-73